createdAt,value
2022-11-15T00:05:14.675Z,7.45
2022-11-15T00:10:36.266Z,7.25
2022-11-15T00:16:00.949Z,7.28
2022-11-15T00:21:22.264Z,7.27
2022-11-15T00:26:43.777Z,7.21
2022-11-15T00:32:06.427Z,7.23
2022-11-15T00:37:27.907Z,7.18
2022-11-15T00:42:49.019Z,7.15
2022-11-15T00:48:12.143Z,7.14
2022-11-15T00:53:33.987Z,7.08
2022-11-15T00:58:55.561Z,7.02
2022-11-15T01:04:18.574Z,6.99
2022-11-15T01:09:39.670Z,6.98
2022-11-15T01:15:01.168Z,7.01
2022-11-15T01:20:24.008Z,7.06
2022-11-15T01:25:45.167Z,7.16
2022-11-15T01:31:07.857Z,7.33
2022-11-15T01:36:30.813Z,7.43
2022-11-15T01:41:51.902Z,7.47
2022-11-15T01:47:16.215Z,7.63
2022-11-15T01:52:40.213Z,7.73
2022-11-15T01:58:04.353Z,7.80
2022-11-15T02:03:31.427Z,7.84
2022-11-15T02:08:55.257Z,7.85
2022-11-15T02:14:17.587Z,7.82
2022-11-15T02:20:07.610Z,7.81
2022-11-15T02:25:40.580Z,7.77
2022-11-15T02:31:06.851Z,7.74
2022-11-15T02:36:36.330Z,7.77
2022-11-15T02:42:00.624Z,7.82
2022-11-15T02:47:23.953Z,7.87
2022-11-15T02:52:47.673Z,7.94
2022-11-15T02:58:25.528Z,7.92
2022-11-15T03:03:59.142Z,7.95
2022-11-15T03:09:28.867Z,7.95
2022-11-15T03:14:53.697Z,7.97
2022-11-15T03:20:18.023Z,7.98
2022-11-15T03:25:43.516Z,7.98
2022-11-15T03:31:25.601Z,7.94
2022-11-15T03:36:49.369Z,7.91
2022-11-15T03:42:18.597Z,7.91
2022-11-15T03:47:42.708Z,7.91
2022-11-15T03:53:05.580Z,7.83
2022-11-15T03:58:26.700Z,7.73
2022-11-15T04:03:48.039Z,7.71
2022-11-15T04:09:10.899Z,7.79
2022-11-15T04:14:32.391Z,7.85
2022-11-15T04:20:11.525Z,7.84
2022-11-15T04:25:34.560Z,7.86
2022-11-15T04:30:55.740Z,7.86
2022-11-15T04:36:34.783Z,7.84
2022-11-15T04:41:57.655Z,7.85
2022-11-15T04:47:19.819Z,7.86
2022-11-15T04:52:41.806Z,7.87
2022-11-15T04:58:04.547Z,7.86
2022-11-15T05:03:43.512Z,7.86
2022-11-15T05:09:05.426Z,7.89
2022-11-15T05:14:28.035Z,7.85
2022-11-15T05:19:49.453Z,7.86
2022-11-15T05:25:10.891Z,7.89
2022-11-15T05:30:33.555Z,7.85
2022-11-15T05:35:59.897Z,7.87
2022-11-15T05:41:23.580Z,7.76
2022-11-15T05:46:46.514Z,7.78
2022-11-15T05:52:10.046Z,7.67
2022-11-15T05:57:31.291Z,7.49
2022-11-15T06:02:54.155Z,7.48
2022-11-15T06:08:15.559Z,7.41
2022-11-15T06:13:37.044Z,7.41
2022-11-15T06:18:59.848Z,7.40
2022-11-15T06:24:21.238Z,7.32
2022-11-15T06:29:42.602Z,7.21
2022-11-15T06:35:06.745Z,7.12
2022-11-15T06:40:28.321Z,6.98
2022-11-15T06:45:49.453Z,7.04
2022-11-15T06:51:12.206Z,7.06
2022-11-15T06:56:33.808Z,6.93
2022-11-15T07:01:55.137Z,7.02
2022-11-15T07:07:17.967Z,7.06
2022-11-15T07:12:39.263Z,7.11
2022-11-15T07:18:02.666Z,7.14
2022-11-15T07:23:25.300Z,7.23
2022-11-15T07:28:46.725Z,7.41
2022-11-15T07:34:08.170Z,7.65
2022-11-15T07:39:31.014Z,7.81
2022-11-15T07:44:52.368Z,8.02
2022-11-15T07:50:14.030Z,8.14
2022-11-15T07:55:36.859Z,8.11
2022-11-15T08:00:58.306Z,8.13
2022-11-15T08:06:19.648Z,8.24
2022-11-15T08:11:42.413Z,8.39
2022-11-15T08:17:04.027Z,8.49
2022-11-15T08:22:25.382Z,8.65
2022-11-15T08:27:48.422Z,8.79
2022-11-15T08:33:12.828Z,8.91
2022-11-15T08:38:34.307Z,9.07
2022-11-15T08:43:57.367Z,9.20
2022-11-15T08:49:18.874Z,9.28
2022-11-15T08:54:40.175Z,9.38
2022-11-15T09:00:03.110Z,9.53
2022-11-15T09:05:24.332Z,9.65
2022-11-15T09:10:45.754Z,9.72
2022-11-15T09:16:08.801Z,9.86
2022-11-15T09:21:30.908Z,9.97
2022-11-15T09:26:52.577Z,10.17
2022-11-15T09:32:15.398Z,10.29
2022-11-15T09:37:36.844Z,10.42
2022-11-15T09:43:10.111Z,10.56
2022-11-15T09:48:48.296Z,10.72
2022-11-15T09:59:56.380Z,11.08
2022-11-15T10:05:01.784Z,11.25
2022-11-15T10:10:10.388Z,11.52
2022-11-15T10:15:15.578Z,11.66
2022-11-15T10:20:22.971Z,11.77
2022-11-15T10:25:27.260Z,11.91
2022-11-15T10:30:40.238Z,12.10
2022-11-15T10:35:44.448Z,12.20
2022-11-15T10:40:47.141Z,12.23
2022-11-15T10:45:50.884Z,12.38
2022-11-15T10:50:56.198Z,12.58
2022-11-15T10:56:01.897Z,12.81
2022-11-15T11:01:13.021Z,12.61
2022-11-15T11:06:19.194Z,12.88
2022-11-15T11:11:22.089Z,13.14
2022-11-15T11:16:43.981Z,13.50
2022-11-15T11:21:53.451Z,14.08
2022-11-15T11:27:07.892Z,14.81
2022-11-15T11:32:23.719Z,15.09
2022-11-15T11:37:33.048Z,15.10
2022-11-15T11:42:40.886Z,15.08
2022-11-15T11:47:49.097Z,15.08
2022-11-15T11:53:03.647Z,15.10
2022-11-15T11:58:13.575Z,15.42
2022-11-15T12:03:23.899Z,15.74
2022-11-15T12:08:35.582Z,16.02
2022-11-15T12:13:38.824Z,16.26
2022-11-15T12:18:51.132Z,16.27
2022-11-15T12:23:58.676Z,16.37
2022-11-15T12:29:08.617Z,16.35
2022-11-15T12:34:30.875Z,16.37
2022-11-15T12:40:07.163Z,16.11
2022-11-15T12:45:26.670Z,15.73
2022-11-15T12:50:58.922Z,15.64
2022-11-15T12:56:23.726Z,15.67
2022-11-15T13:01:58.132Z,15.81
2022-11-15T13:07:04.038Z,15.77
2022-11-15T13:12:13.594Z,15.81
2022-11-15T13:17:37.209Z,15.69
2022-11-15T13:22:52.821Z,15.37
2022-11-15T13:28:00.440Z,15.08
2022-11-15T13:33:10.958Z,14.82
2022-11-15T13:38:22.519Z,14.57
2022-11-15T13:43:33.236Z,14.36
2022-11-15T13:48:36.374Z,14.23
2022-11-15T13:53:40.795Z,14.07
2022-11-15T13:58:44.910Z,13.93
2022-11-15T14:03:56.729Z,13.93
2022-11-15T14:09:03.695Z,13.88
2022-11-15T14:14:16.371Z,13.83
2022-11-15T14:19:38.567Z,13.72
2022-11-15T14:24:42.023Z,13.60
2022-11-15T14:29:46.260Z,13.47
2022-11-15T14:34:49.491Z,13.36
2022-11-15T14:39:52.685Z,13.25
2022-11-15T14:44:56.744Z,13.16
2022-11-15T14:49:59.495Z,13.08
2022-11-15T14:55:03.246Z,12.96
2022-11-15T15:00:10.884Z,12.82
2022-11-15T15:05:18.596Z,12.71
2022-11-15T15:15:46.256Z,12.39
2022-11-15T15:20:52.433Z,12.13
2022-11-15T15:25:55.157Z,12.04
2022-11-15T15:31:00.284Z,11.89
2022-11-15T15:36:03.151Z,11.77
2022-11-15T15:41:06.086Z,11.64
2022-11-15T15:46:12.197Z,11.52
2022-11-15T15:51:20.105Z,11.38
2022-11-15T15:56:23.667Z,11.25
2022-11-15T16:01:27.764Z,11.20
2022-11-15T16:06:37.284Z,11.09
2022-11-15T16:11:40.073Z,10.96
2022-11-15T16:16:44.159Z,10.93
2022-11-15T16:21:47.045Z,10.93
2022-11-15T16:26:50.555Z,10.89
2022-11-15T16:31:54.621Z,10.88
2022-11-15T16:36:57.552Z,10.86
2022-11-15T16:42:00.781Z,10.81
2022-11-15T16:47:05.083Z,10.79
2022-11-15T16:52:07.952Z,10.79
2022-11-15T16:57:12.458Z,10.77
2022-11-15T17:02:17.249Z,10.62
2022-11-15T17:07:20.034Z,10.55
2022-11-15T17:12:22.881Z,10.45
2022-11-15T17:17:27.474Z,10.36
2022-11-15T17:22:30.386Z,10.33
2022-11-15T17:27:33.380Z,10.29
2022-11-15T17:32:38.573Z,10.16
2022-11-15T17:37:41.331Z,10.02
2022-11-15T17:42:44.715Z,9.98
2022-11-15T17:47:48.861Z,9.97
2022-11-15T17:52:51.796Z,9.86
2022-11-15T17:57:54.555Z,9.80
2022-11-15T18:02:59.301Z,9.75
2022-11-15T18:08:02.069Z,9.76
2022-11-15T18:13:05.260Z,9.67
2022-11-15T18:18:09.353Z,9.67
2022-11-15T18:23:12.393Z,9.50
2022-11-15T18:28:15.327Z,9.42
2022-11-15T18:33:19.722Z,9.43
2022-11-15T18:38:22.499Z,9.45
2022-11-15T18:43:25.269Z,9.38
2022-11-15T18:48:31.862Z,9.35
2022-11-15T18:53:35.942Z,9.26
2022-11-15T18:58:40.871Z,9.30
2022-11-15T19:03:46.460Z,9.24
2022-11-15T19:08:50.744Z,9.12
2022-11-15T19:13:54.546Z,9.06
2022-11-15T19:18:59.765Z,9.09
2022-11-15T19:24:03.121Z,9.15
2022-11-15T19:29:07.095Z,9.17
2022-11-15T19:34:13.064Z,8.90
2022-11-15T19:39:18.414Z,8.74
2022-11-15T19:44:22.696Z,8.77
2022-11-15T19:49:27.547Z,8.84
2022-11-15T19:54:30.336Z,8.99
2022-11-15T19:59:33.036Z,9.00
2022-11-15T20:04:37.149Z,9.06
2022-11-15T20:09:39.865Z,9.13
2022-11-15T20:14:42.700Z,9.17
2022-11-15T20:19:46.899Z,9.00
2022-11-15T20:24:49.841Z,8.95
2022-11-15T20:29:54.490Z,8.93
2022-11-15T20:34:58.570Z,8.91
2022-11-15T20:40:01.413Z,8.86
2022-11-15T20:45:04.408Z,8.74
2022-11-15T20:50:35.495Z,8.69
2022-11-15T20:55:32.399Z,8.64
2022-11-15T21:00:36.774Z,8.56
2022-11-15T21:05:42.000Z,8.49
2022-11-15T21:11:16.559Z,8.03
2022-11-15T21:16:19.260Z,7.99
2022-11-15T21:21:23.425Z,8.12
2022-11-15T21:26:26.162Z,8.24
2022-11-15T21:31:29.041Z,8.17
2022-11-15T21:36:33.163Z,8.02
2022-11-15T21:41:36.332Z,8.07
2022-11-15T21:46:39.195Z,8.17
2022-11-15T21:51:43.351Z,8.21
2022-11-15T21:56:46.359Z,8.19
2022-11-15T22:02:06.741Z,8.15
2022-11-15T22:07:10.853Z,8.13
2022-11-15T22:12:13.920Z,7.94
2022-11-15T22:17:16.873Z,7.72
2022-11-15T22:22:21.095Z,7.62
2022-11-15T22:27:24.099Z,7.58
2022-11-15T22:32:27.164Z,7.56
2022-11-15T22:37:31.401Z,7.62
2022-11-15T22:42:34.267Z,7.72
2022-11-15T22:47:37.208Z,7.75
2022-11-15T22:52:41.430Z,7.77
2022-11-15T22:57:44.397Z,7.83
2022-11-15T23:02:51.795Z,7.86
2022-11-15T23:07:57.573Z,7.86
2022-11-15T23:13:19.484Z,7.75
2022-11-15T23:18:22.344Z,7.68
2022-11-15T23:23:26.649Z,7.54
2022-11-15T23:28:29.624Z,7.53
2022-11-15T23:33:50.113Z,7.56
2022-11-15T23:38:54.603Z,7.52
2022-11-15T23:43:57.446Z,7.55
2022-11-15T23:49:00.691Z,7.51
2022-11-15T23:54:05.069Z,7.51
2022-11-15T23:59:08.466Z,7.45
